Time;durP1;ratioP1;P1;durP2;ratioP2;P2;SDS_P1;SDS_P2;PMS_P1;PMS_P2;Temp;Humidity;BMP_temperature;BMP_pressure;BME280_temperature;BME280_humidity;BME280_pressure;Samples;Min_cycle;Max_cycle;Signal;HPM_P1;HPM_P2
2022/12/09 00:01:39;;;;;;;;;;;;;;;-8.26;100.00;100261.94;5068421;28;19935;-57
2022/12/09 00:04:04;;;;;;;;;;;;;;;-8.28;100.00;100261.22;5067701;28;19921;-58
2022/12/09 00:06:29;;;;;;;;;;;;;;;-8.26;100.00;100257.66;5068901;28;19925;-56
2022/12/09 00:08:55;;;;;;;;;;;;;;;-8.28;100.00;100264.63;5067961;28;20289;-58
2022/12/09 00:11:21;;;;;;;;;;;;;;;-8.22;100.00;100258.31;5071588;28;19930;-57
2022/12/09 00:13:47;;;;;;;;;;;;;;;-8.24;100.00;100258.41;5065994;28;19924;-58
2022/12/09 00:16:13;;;;;;;;;;;;;;;-8.23;100.00;100254.94;5070608;28;20023;-56
2022/12/09 00:18:38;;;;;;;;;;;;;;;-8.26;100.00;100255.09;5069153;28;20019;-58
2022/12/09 00:21:23;;;;;;;;;;;;;;;-8.30;100.00;100256.13;5070651;28;20247;-59
2022/12/09 00:23:49;;;;;;;;;;;;;;;-8.29;100.00;100252.66;5068454;28;19928;-58
2022/12/09 00:26:15;;;;;;;;;;;;;;;-8.23;100.00;100249.78;5070532;28;19927;-58
2022/12/09 00:28:41;;;;;;;;;;;;;;;-8.22;100.00;100248.03;5071459;28;19920;-57
2022/12/09 00:31:06;;;;;;;;;;;;;;;-8.25;100.00;100248.19;5069576;28;19928;-58
2022/12/09 00:33:32;;;;;;;;;;;;;;;-8.24;100.00;100240.38;5071724;28;20267;-58
2022/12/09 00:36:04;;;;;;;;;;;;;;;-8.18;100.00;100247.81;5073793;28;20393;-56
2022/12/09 00:38:29;;;;;;;;;;;;;;;-8.11;100.00;100241.44;5070213;28;19951;-58
2022/12/09 00:40:54;;;;;;;;;;;;;;;-8.01;100.00;100239.22;5074258;28;20421;-58
2022/12/09 00:43:19;;;;;;;;;;;;;;;-7.87;100.00;100240.25;5073082;28;19929;-58
2022/12/09 00:45:44;;;;;;;;;;;;;;;-7.74;100.00;100229.25;5071504;28;20253;-58
2022/12/09 00:48:10;;;;;;;;;;;;;;;-7.63;100.00;100233.84;5076698;28;20373;-57
2022/12/09 00:50:35;;;;;;;;;;;;;;;-7.52;100.00;100231.50;5068755;28;19920;-58
2022/12/09 00:53:00;;;;;;;;;;;;;;;-7.41;100.00;100230.09;5070045;28;20416;-58
2022/12/09 00:55:25;;;;;;;;;;;;;;;-7.33;100.00;100226.22;5069919;28;19931;-56
2022/12/09 00:57:51;;;;;;;;;;;;;;;-7.23;100.00;100231.69;5077956;28;20293;-58
2022/12/09 01:00:16;;;;;;;;;;;;;;;-7.10;100.00;100226.69;5063139;28;20438;-58
2022/12/09 01:02:41;;;;;;;;;;;;;;;-6.97;100.00;100232.00;5078836;28;19979;-58
2022/12/09 01:05:06;;;;;;;;;;;;;;;-6.82;100.00;100231.13;5072436;28;19928;-58
2022/12/09 01:07:32;;;;;;;;;;;;;;;-6.71;100.00;100240.84;5075938;28;20393;-58
2022/12/09 01:09:57;;;;;;;;;;;;;;;-6.64;100.00;100229.28;5067548;28;19978;-58
2022/12/09 01:12:22;;;;;;;;;;;;;;;-6.55;100.00;100235.69;5071739;28;20045;-58
2022/12/09 01:14:48;;;;;;;;;;;;;;;-6.48;100.00;100232.66;5065641;28;19927;-58
2022/12/09 01:17:13;;;;;;;;;;;;;;;-6.38;100.00;100230.34;5072959;28;20319;-58
2022/12/09 01:19:39;;;;;;;;;;;;;;;-6.26;100.00;100239.16;5068765;28;20395;-57
2022/12/09 01:22:04;;;;;;;;;;;;;;;-6.16;100.00;100238.50;5059536;28;19920;-58
2022/12/09 01:24:29;;;;;;;;;;;;;;;-6.06;100.00;100231.06;5073705;28;20358;-58
2022/12/09 01:26:55;;;;;;;;;;;;;;;-5.98;100.00;100234.00;5074376;28;19928;-59
2022/12/09 01:29:20;;;;;;;;;;;;;;;-5.90;100.00;100230.13;5067413;28;19925;-59
2022/12/09 01:31:46;;;;;;;;;;;;;;;-5.86;100.00;100229.84;5062923;28;20460;-59
2022/12/09 01:34:11;;;;;;;;;;;;;;;-5.80;100.00;100226.88;5070206;28;19924;-59
2022/12/09 01:36:37;;;;;;;;;;;;;;;-5.71;100.00;100225.50;5073761;28;19928;-59
2022/12/09 01:39:03;;;;;;;;;;;;;;;-5.65;100.00;100230.31;5062798;28;19924;-59
2022/12/09 01:41:28;;;;;;;;;;;;;;;-5.58;100.00;100225.56;5069844;28;19951;-59
2022/12/09 01:44:06;;;;;;;;;;;;;;;-5.57;100.00;100217.75;5075801;28;19935;-59
2022/12/09 01:46:31;;;;;;;;;;;;;;;-5.50;100.00;100221.63;5069523;28;19924;-57
2022/12/09 01:48:57;;;;;;;;;;;;;;;-5.42;100.00;100225.44;5068962;28;19924;-59
2022/12/09 01:51:23;;;;;;;;;;;;;;;-5.39;100.00;100215.78;5071944;28;19921;-59
2022/12/09 01:53:49;;;;;;;;;;;;;;;-5.37;100.00;100218.25;5071420;28;19928;-59
2022/12/09 01:56:18;;;;;;;;;;;;;;;-5.35;100.00;100212.06;5072395;28;19935;-59
2022/12/09 01:58:43;;;;;;;;;;;;;;;-5.27;100.00;100220.19;5067294;28;19951;-58
2022/12/09 02:01:09;;;;;;;;;;;;;;;-5.24;100.00;100216.59;5070639;28;19925;-59
2022/12/09 02:03:34;;;;;;;;;;;;;;;-5.20;100.00;100220.63;5064956;28;20395;-59
2022/12/09 02:05:59;;;;;;;;;;;;;;;-5.17;100.00;100209.25;5070596;28;19920;-59
2022/12/09 02:08:24;;;;;;;;;;;;;;;-5.20;100.00;100209.44;5068223;28;19925;-59
2022/12/09 02:11:02;;;;;;;;;;;;;;;-5.24;100.00;100210.56;5067085;28;19921;-59
2022/12/09 02:13:27;;;;;;;;;;;;;;;-5.23;100.00;100213.06;5070233;28;20370;-59
2022/12/09 02:15:54;;;;;;;;;;;;;;;-5.23;100.00;100202.72;5073017;28;19931;-59
2022/12/09 02:18:35;;;;;;;;;;;;;;;-5.27;100.00;100203.81;5071206;28;20039;-59
2022/12/09 02:21:05;;;;;;;;;;;;;;;-5.35;100.00;100209.47;5068562;28;19940;-59
2022/12/09 02:23:38;;;;;;;;;;;;;;;-5.38;100.00;100214.00;5069254;28;19928;-59
2022/12/09 02:26:10;;;;;;;;;;;;;;;-5.37;100.00;100211.34;5070755;28;19928;-60
2022/12/09 02:28:57;;;;;;;;;;;;;;;-5.33;100.00;100206.81;5075057;28;19943;-59
2022/12/09 02:31:31;;;;;;;;;;;;;;;-5.26;100.00;100205.50;5072701;28;19920;-60
2022/12/09 02:33:59;;;;;;;;;;;;;;;-5.17;100.00;100207.50;5070157;28;19932;-60
2022/12/09 02:36:27;;;;;;;;;;;;;;;-5.08;100.00;100194.00;5073080;28;19920;-59
2022/12/09 02:38:53;;;;;;;;;;;;;;;-5.01;100.00;100196.19;5073833;28;19952;-59
2022/12/09 02:41:21;;;;;;;;;;;;;;;-4.95;100.00;100195.81;5074983;28;19952;-59
2022/12/09 02:43:48;;;;;;;;;;;;;;;-4.90;100.00;100201.50;5075079;28;19928;-59
2022/12/09 02:46:15;;;;;;;;;;;;;;;-4.84;100.00;100201.91;5081720;28;19924;-59
2022/12/09 02:48:43;;;;;;;;;;;;;;;-4.76;100.00;100198.00;5078100;28;20374;-60
2022/12/09 02:51:11;;;;;;;;;;;;;;;-4.71;100.00;100198.53;5064430;28;19924;-60
2022/12/09 02:53:37;;;;;;;;;;;;;;;-4.65;100.00;100192.97;5065399;28;19927;-60
2022/12/09 02:56:04;;;;;;;;;;;;;;;-4.62;100.00;100191.03;5077615;28;19942;-60
2022/12/09 02:58:29;;;;;;;;;;;;;;;-4.58;100.00;100195.97;5073121;28;19920;-60
2022/12/09 03:00:55;;;;;;;;;;;;;;;-4.54;100.00;100189.66;5069674;28;20035;-60
2022/12/09 03:03:20;;;;;;;;;;;;;;;-4.53;100.00;100191.34;5074862;28;20353;-60
2022/12/09 03:06:07;;;;;;;;;;;;;;;-4.50;100.00;100188.53;5077739;28;20014;-60
2022/12/09 03:08:32;;;;;;;;;;;;;;;-4.48;100.00;100197.84;5075443;28;20313;-60
2022/12/09 03:10:57;;;;;;;;;;;;;;;-4.40;100.00;100187.00;5074293;28;20024;-60
2022/12/09 03:13:37;;;;;;;;;;;;;;;-4.36;100.00;100191.06;5074138;28;20015;-60
2022/12/09 03:16:13;;;;;;;;;;;;;;;-4.31;100.00;100186.41;5074835;28;20019;-60
2022/12/09 03:18:41;;;;;;;;;;;;;;;-4.27;100.00;100190.41;5063067;28;19952;-60
2022/12/09 03:21:07;;;;;;;;;;;;;;;-4.24;100.00;100185.03;5065452;28;20364;-60
2022/12/09 03:23:33;;;;;;;;;;;;;;;-4.21;100.00;100189.16;5074392;28;20004;-60
2022/12/09 03:26:00;;;;;;;;;;;;;;;-4.17;100.00;100195.81;5068849;28;19921;-60
2022/12/09 03:28:32;;;;;;;;;;;;;;;-4.10;100.00;100188.47;5064470;28;19917;-60
2022/12/09 03:31:00;;;;;;;;;;;;;;;-4.06;100.00;100201.09;5071686;28;19959;-60
2022/12/09 03:33:26;;;;;;;;;;;;;;;-4.03;100.00;100193.09;5069917;28;19931;-60
2022/12/09 03:35:54;;;;;;;;;;;;;;;-3.99;100.00;100193.75;5070001;28;19920;-60
2022/12/09 03:38:21;;;;;;;;;;;;;;;-3.94;100.00;100189.06;5075236;28;19968;-60
2022/12/09 03:40:48;;;;;;;;;;;;;;;-3.92;100.00;100187.22;5072649;28;20373;-60
2022/12/09 03:43:26;;;;;;;;;;;;;;;-3.92;100.00;100189.81;5074381;28;19924;-60
2022/12/09 03:45:53;;;;;;;;;;;;;;;-3.88;100.00;100191.22;5062620;28;19921;-60
2022/12/09 03:48:19;;;;;;;;;;;;;;;-3.82;100.00;100187.38;5068651;28;19932;-61
2022/12/09 03:50:48;;;;;;;;;;;;;;;-3.81;100.00;100184.69;5069288;28;20293;-60
2022/12/09 03:53:16;;;;;;;;;;;;;;;-3.78;100.00;100184.47;5069423;28;19933;-59
2022/12/09 03:55:44;;;;;;;;;;;;;;;-3.76;100.00;100179.22;5061863;28;19921;-61
2022/12/09 03:58:11;;;;;;;;;;;;;;;-3.70;100.00;100183.13;5071154;28;20021;-60
2022/12/09 04:00:37;;;;;;;;;;;;;;;-3.65;100.00;100181.03;5067615;28;20035;-60
2022/12/09 04:03:03;;;;;;;;;;;;;;;-3.60;100.00;100173.78;5068952;28;20430;-61
2022/12/09 04:05:28;;;;;;;;;;;;;;;-3.52;100.00;100187.03;5061118;28;19925;-61
2022/12/09 04:07:53;;;;;;;;;;;;;;;-3.48;100.00;100178.09;5067188;28;19964;-61
2022/12/09 04:10:18;;;;;;;;;;;;;;;-3.39;100.00;100182.63;5068337;28;19925;-61
2022/12/09 04:12:44;;;;;;;;;;;;;;;-3.30;100.00;100187.16;5072100;28;20290;-61
2022/12/09 04:15:09;;;;;;;;;;;;;;;-3.20;100.00;100189.09;5068996;28;19928;-61
2022/12/09 04:17:34;;;;;;;;;;;;;;;-3.15;100.00;100184.41;5069731;28;19924;-60
2022/12/09 04:20:00;;;;;;;;;;;;;;;-3.14;100.00;100178.28;5070770;28;19935;-61
2022/12/09 04:22:25;;;;;;;;;;;;;;;-3.12;100.00;100186.78;5073343;28;19921;-61
2022/12/09 04:24:50;;;;;;;;;;;;;;;-3.09;100.00;100186.56;5075270;28;19975;-60
2022/12/09 04:27:15;;;;;;;;;;;;;;;-3.12;100.00;100181.63;5075342;28;20332;-61
2022/12/09 04:29:41;;;;;;;;;;;;;;;-3.10;100.00;100184.91;5063499;28;19960;-61
2022/12/09 04:32:06;;;;;;;;;;;;;;;-3.09;100.00;100182.22;5072848;28;20405;-61
2022/12/09 04:34:32;;;;;;;;;;;;;;;-3.05;100.00;100187.16;5072743;28;19928;-62
2022/12/09 04:36:57;;;;;;;;;;;;;;;-3.02;100.00;100185.19;5071732;28;19946;-61
2022/12/09 04:39:22;;;;;;;;;;;;;;;-2.96;100.00;100176.97;5065514;28;19928;-61
2022/12/09 04:41:48;;;;;;;;;;;;;;;-2.91;100.00;100181.81;5073507;28;19920;-61
2022/12/09 04:44:13;;;;;;;;;;;;;;;-2.86;100.00;100177.13;5069291;28;19925;-61
2022/12/09 04:46:38;;;;;;;;;;;;;;;-2.81;100.00;100177.63;5066768;28;19920;-62
2022/12/09 04:49:03;;;;;;;;;;;;;;;-2.76;100.00;100172.91;5069090;28;20414;-61
2022/12/09 04:51:29;;;;;;;;;;;;;;;-2.73;100.00;100177.06;5071288;28;19927;-61
2022/12/09 04:53:54;;;;;;;;;;;;;;;-2.72;100.00;100181.28;5070756;28;20296;-61
2022/12/09 04:56:20;;;;;;;;;;;;;;;-2.68;100.00;100182.72;5074494;28;20298;-61
2022/12/09 04:58:45;;;;;;;;;;;;;;;-2.65;100.00;100185.09;5068750;28;20377;-62
2022/12/09 05:01:12;;;;;;;;;;;;;;;-2.63;100.00;100185.81;5067488;28;20347;-62
2022/12/09 05:03:37;;;;;;;;;;;;;;;-2.60;100.00;100180.38;5070836;28;19920;-62
2022/12/09 05:06:04;;;;;;;;;;;;;;;-2.55;100.00;100178.28;5068736;28;20432;-62
2022/12/09 05:08:29;;;;;;;;;;;;;;;-2.50;100.00;100186.56;5075549;28;19927;-61
2022/12/09 05:10:54;;;;;;;;;;;;;;;-2.47;100.00;100180.31;5073756;28;19916;-61
2022/12/09 05:13:19;;;;;;;;;;;;;;;-2.44;100.00;100183.50;5068819;28;20337;-62
2022/12/09 05:15:44;;;;;;;;;;;;;;;-2.39;100.00;100177.13;5074597;28;19923;-62
2022/12/09 05:18:10;;;;;;;;;;;;;;;-2.30;100.00;100176.44;5071424;28;19920;-61
2022/12/09 05:20:37;;;;;;;;;;;;;;;-2.29;100.00;100175.50;5066347;28;19975;-62
2022/12/09 05:23:02;;;;;;;;;;;;;;;-2.34;100.00;100180.22;5075189;28;19988;-62
2022/12/09 05:25:27;;;;;;;;;;;;;;;-2.37;100.00;100176.09;5070161;28;20396;-62
2022/12/09 05:27:52;;;;;;;;;;;;;;;-2.39;100.00;100172.75;5076452;28;19927;-62
2022/12/09 05:30:18;;;;;;;;;;;;;;;-2.34;100.00;100170.66;5061919;28;19924;-62
2022/12/09 05:32:43;;;;;;;;;;;;;;;-2.31;100.00;100173.00;5069040;28;19928;-62
2022/12/09 05:35:08;;;;;;;;;;;;;;;-2.26;100.00;100180.47;5070210;28;19971;-62
2022/12/09 05:37:33;;;;;;;;;;;;;;;-2.24;100.00;100170.78;5065513;28;20012;-62
2022/12/09 05:39:59;;;;;;;;;;;;;;;-2.20;100.00;100173.00;5069882;28;20285;-61
2022/12/09 05:42:24;;;;;;;;;;;;;;;-2.19;100.00;100173.88;5073258;28;19990;-62
2022/12/09 05:44:49;;;;;;;;;;;;;;;-2.16;100.00;100168.44;5073330;28;19920;-62
2022/12/09 05:47:14;;;;;;;;;;;;;;;-2.18;100.00;100164.28;5074495;28;19936;-62
2022/12/09 05:49:40;;;;;;;;;;;;;;;-2.22;100.00;100169.72;5071941;28;20014;-62
2022/12/09 05:52:05;;;;;;;;;;;;;;;-2.19;100.00;100179.06;5071351;28;20027;-62
2022/12/09 05:54:30;;;;;;;;;;;;;;;-2.19;100.00;100168.66;5068406;28;19930;-62
2022/12/09 05:56:56;;;;;;;;;;;;;;;-2.16;100.00;100167.59;5072286;28;19959;-62
2022/12/09 05:59:22;;;;;;;;;;;;;;;-2.14;100.00;100170.91;5068981;28;19925;-62
2022/12/09 06:01:47;;;;;;;;;;;;;;;-2.08;100.00;100171.28;5075860;28;19966;-63
2022/12/09 06:04:12;;;;;;;;;;;;;;;-2.01;100.00;100163.84;5074750;28;19924;-62
2022/12/09 06:06:37;;;;;;;;;;;;;;;-1.91;100.00;100169.97;5077166;28;19931;-62
2022/12/09 06:09:02;;;;;;;;;;;;;;;-1.87;100.00;100176.59;5074214;28;20019;-62
2022/12/09 06:11:28;;;;;;;;;;;;;;;-1.80;100.00;100189.94;5076099;28;20012;-62
2022/12/09 06:13:54;;;;;;;;;;;;;;;-1.78;100.00;100182.88;5078773;28;20123;-62
2022/12/09 06:16:20;;;;;;;;;;;;;;;-1.76;100.00;100183.53;5077470;28;20563;-63
2022/12/09 06:18:46;;;;;;;;;;;;;;;-1.77;100.00;100181.91;5075797;28;20019;-62
2022/12/09 06:21:12;;;;;;;;;;;;;;;-1.71;100.00;100181.41;5077492;28;19920;-62
2022/12/09 06:23:39;;;;;;;;;;;;;;;-1.69;100.00;100176.94;5078363;28;20298;-62
2022/12/09 06:26:05;;;;;;;;;;;;;;;-1.66;100.00;100176.69;5079044;28;19960;-62
2022/12/09 06:28:31;;;;;;;;;;;;;;;-1.65;100.00;100175.75;5081080;28;19929;-62
2022/12/09 06:30:56;;;;;;;;;;;;;;;-1.66;100.00;100175.88;5069276;28;19920;-62
2022/12/09 06:33:21;;;;;;;;;;;;;;;-1.64;100.00;100177.41;5073967;28;19928;-62
2022/12/09 06:35:47;;;;;;;;;;;;;;;-1.63;100.00;100186.03;5071675;28;19927;-62
2022/12/09 06:38:12;;;;;;;;;;;;;;;-1.61;100.00;100176.34;5072945;28;19921;-63
2022/12/09 06:40:41;;;;;;;;;;;;;;;-1.58;100.00;100181.28;5073068;28;20334;-63
2022/12/09 06:43:06;;;;;;;;;;;;;;;-1.59;100.00;100187.44;5074200;28;19934;-63
2022/12/09 06:45:31;;;;;;;;;;;;;;;-1.59;100.00;100193.47;5073258;28;19936;-63
2022/12/09 06:47:56;;;;;;;;;;;;;;;-1.57;100.00;100194.19;5075697;28;19964;-63
2022/12/09 06:50:22;;;;;;;;;;;;;;;-1.58;100.00;100200.31;5069966;28;20017;-62
2022/12/09 06:52:47;;;;;;;;;;;;;;;-1.57;100.00;100201.97;5078241;28;20069;-62
2022/12/09 06:55:12;;;;;;;;;;;;;;;-1.53;100.00;100192.16;5066646;28;19925;-63
2022/12/09 06:57:37;;;;;;;;;;;;;;;-1.52;100.00;100198.19;5084042;28;20385;-62
2022/12/09 07:00:04;;;;;;;;;;;;;;;-1.53;100.00;100199.97;5082517;28;20411;-63
2022/12/09 07:02:29;;;;;;;;;;;;;;;-1.47;100.00;100207.28;5069423;28;19964;-63
2022/12/09 07:04:55;;;;;;;;;;;;;;;-1.48;100.00;100200.44;5069247;28;20017;-63
2022/12/09 07:07:20;;;;;;;;;;;;;;;-1.46;100.00;100208.94;5070647;28;19932;-63
2022/12/09 07:09:45;;;;;;;;;;;;;;;-1.44;100.00;100207.06;5071422;28;19920;-62
2022/12/09 07:12:11;;;;;;;;;;;;;;;-1.41;100.00;100212.00;5066091;28;19960;-63
2022/12/09 07:14:36;;;;;;;;;;;;;;;-1.40;100.00;100205.84;5076494;28;19924;-63
2022/12/09 07:17:01;;;;;;;;;;;;;;;-1.39;100.00;100211.91;5066235;28;20073;-62
2022/12/09 07:19:28;;;;;;;;;;;;;;;-1.39;100.00;100217.09;5065399;28;19932;-62
2022/12/09 07:21:53;;;;;;;;;;;;;;;-1.40;100.00;100215.44;5067446;28;19943;-63
2022/12/09 07:24:19;;;;;;;;;;;;;;;-1.40;100.00;100212.81;5070534;28;20366;-63
2022/12/09 07:26:44;;;;;;;;;;;;;;;-1.35;100.00;100221.09;5072019;28;20301;-64
2022/12/09 07:29:10;;;;;;;;;;;;;;;-1.33;100.00;100219.22;5066389;28;19928;-63
2022/12/09 07:31:35;;;;;;;;;;;;;;;-1.32;100.00;100215.66;5065890;28;19974;-63
2022/12/09 07:34:01;;;;;;;;;;;;;;;-1.33;100.00;100216.59;5069743;28;19930;-63
2022/12/09 07:36:27;;;;;;;;;;;;;;;-1.32;100.00;100221.69;5068734;28;19932;-63
2022/12/09 07:38:53;;;;;;;;;;;;;;;-1.31;100.00;100217.31;5065169;28;19932;-63
2022/12/09 07:41:19;;;;;;;;;;;;;;;-1.33;100.00;100214.81;5069191;28;19924;-63
2022/12/09 07:43:44;;;;;;;;;;;;;;;-1.32;100.00;100216.50;5071304;28;19966;-63
2022/12/09 07:46:10;;;;;;;;;;;;;;;-1.30;100.00;100221.56;5065427;28;19921;-63
2022/12/09 07:48:35;;;;;;;;;;;;;;;-1.29;100.00;100220.63;5062869;28;19920;-62
2022/12/09 07:51:01;;;;;;;;;;;;;;;-1.29;100.00;100217.19;5067241;28;20356;-63
2022/12/09 07:53:27;;;;;;;;;;;;;;;-1.27;100.00;100218.72;5068096;28;19919;-63
2022/12/09 07:55:52;;;;;;;;;;;;;;;-1.26;100.00;100219.56;5067056;28;20144;-63
2022/12/09 07:58:17;;;;;;;;;;;;;;;-1.26;100.00;100225.59;5067267;28;19932;-63
2022/12/09 08:00:42;;;;;;;;;;;;;;;-1.22;100.00;100223.56;5072145;28;19935;-63
2022/12/09 08:03:09;;;;;;;;;;;;;;;-1.22;100.00;100223.56;5069209;28;20255;-63
2022/12/09 08:05:34;;;;;;;;;;;;;;;-1.23;100.00;100217.53;5064432;28;19936;-62
2022/12/09 08:07:59;;;;;;;;;;;;;;;-1.24;100.00;100213.28;5068140;28;19929;-64
2022/12/09 08:10:24;;;;;;;;;;;;;;;-1.21;100.00;100212.22;5067358;28;20381;-63
2022/12/09 08:12:50;;;;;;;;;;;;;;;-1.18;100.00;100207.59;5067401;28;19924;-63
2022/12/09 08:15:18;;;;;;;;;;;;;;;-1.18;100.00;100201.56;5070294;28;19932;-63
2022/12/09 08:17:44;;;;;;;;;;;;;;;-1.25;100.00;100203.81;5067378;28;20372;-64
2022/12/09 08:20:10;;;;;;;;;;;;;;;-1.26;100.00;100209.97;5066896;28;19921;-63
2022/12/09 08:22:35;;;;;;;;;;;;;;;-1.28;100.00;100222.28;5066298;28;19985;-63
2022/12/09 08:25:00;;;;;;;;;;;;;;;-1.19;100.00;100216.34;5065956;28;19920;-64
2022/12/09 08:27:25;;;;;;;;;;;;;;;-1.15;100.00;100215.16;5069067;28;20436;-63
2022/12/09 08:29:50;;;;;;;;;;;;;;;-1.13;100.00;100218.47;5069788;28;19924;-63
2022/12/09 08:32:16;;;;;;;;;;;;;;;-1.12;100.00;100209.69;5067917;28;19934;-63
2022/12/09 08:34:42;;;;;;;;;;;;;;;-1.08;100.00;100218.09;5070337;28;19926;-63
2022/12/09 08:37:07;;;;;;;;;;;;;;;-1.03;100.00;100215.09;5072096;28;19925;-63
2022/12/09 08:39:32;;;;;;;;;;;;;;;-1.01;100.00;100223.63;5071087;28;19924;-64
2022/12/09 08:41:57;;;;;;;;;;;;;;;-0.99;100.00;100214.75;5074058;28;19974;-63
2022/12/09 08:44:22;;;;;;;;;;;;;;;-0.96;100.00;100226.69;5068309;28;20343;-63
2022/12/09 08:46:49;;;;;;;;;;;;;;;-0.96;100.00;100222.31;5070957;28;19987;-63
2022/12/09 08:49:18;;;;;;;;;;;;;;;-0.96;100.00;100221.47;5070565;28;19925;-63
2022/12/09 08:51:43;;;;;;;;;;;;;;;-0.95;100.00;100225.75;5073816;28;20023;-63
2022/12/09 08:54:09;;;;;;;;;;;;;;;-0.93;100.00;100221.22;5072154;28;20011;-63
2022/12/09 08:56:34;;;;;;;;;;;;;;;-0.92;100.00;100228.94;5070815;28;19943;-63
2022/12/09 08:58:59;;;;;;;;;;;;;;;-0.90;100.00;100227.03;5072762;28;20366;-63
2022/12/09 09:01:30;;;;;;;;;;;;;;;-0.88;100.00;100232.09;5069951;28;19930;-63
2022/12/09 09:03:56;;;;;;;;;;;;;;;-0.83;100.00;100226.53;5075883;28;19927;-63
2022/12/09 09:06:21;;;;;;;;;;;;;;;-0.80;100.00;100226.28;5071162;28;20301;-63
2022/12/09 09:08:46;;;;;;;;;;;;;;;-0.76;100.00;100225.09;5065000;28;19932;-63
2022/12/09 09:11:13;;;;;;;;;;;;;;;-0.75;100.00;100230.19;5070096;28;19924;-63
2022/12/09 09:13:39;;;;;;;;;;;;;;;-0.71;100.00;100225.53;5067059;28;20015;-63
2022/12/09 09:16:08;;;;;;;;;;;;;;;-0.71;100.00;100226.38;5069625;28;20027;-64
2022/12/09 09:18:33;;;;;;;;;;;;;;;-0.69;100.00;100226.25;5073307;28;20044;-64
2022/12/09 09:20:58;;;;;;;;;;;;;;;-0.68;100.00;100231.31;5070433;28;20033;-63
2022/12/09 09:23:24;;;;;;;;;;;;;;;-0.68;100.00;100225.28;5068830;28;20050;-63
2022/12/09 09:25:49;;;;;;;;;;;;;;;-0.69;100.00;100226.25;5069594;28;19931;-63
2022/12/09 09:28:14;;;;;;;;;;;;;;;-0.66;100.00;100228.59;5059622;28;19931;-63
2022/12/09 09:30:39;;;;;;;;;;;;;;;-0.60;100.00;100230.69;5072147;28;20463;-63
2022/12/09 09:33:06;;;;;;;;;;;;;;;-0.58;100.00;100226.19;5070546;28;19920;-63
2022/12/09 09:35:31;;;;;;;;;;;;;;;-0.59;100.00;100228.94;5068772;28;19932;-64
2022/12/09 09:37:57;;;;;;;;;;;;;;;-0.61;100.00;100223.03;5074533;28;19920;-63
2022/12/09 09:40:23;;;;;;;;;;;;;;;-0.61;100.00;100223.03;5074974;28;19939;-64
2022/12/09 09:42:50;;;;;;;;;;;;;;;-0.54;100.00;100224.16;5069777;28;19921;-64
2022/12/09 09:45:19;;;;;;;;;;;;;;;-0.53;100.00;100228.44;5069171;28;19932;-63
2022/12/09 09:47:46;;;;;;;;;;;;;;;-0.51;100.00;100232.56;5067313;28;19928;-63
2022/12/09 09:50:40;;;;;;;;;;;;;;;-0.51;100.00;100227.34;5069679;28;19921;-64
2022/12/09 09:53:18;;;;;;;;;;;;;;;-0.53;100.00;100231.03;5065527;28;19928;-64
2022/12/09 09:55:58;;;;;;;;;;;;;;;-0.58;100.00;100220.16;5071159;28;20488;-64
2022/12/09 09:58:27;;;;;;;;;;;;;;;-0.61;100.00;100223.84;5072152;28;19935;-64
2022/12/09 10:01:02;;;;;;;;;;;;;;;-0.61;100.00;100230.84;5070312;28;19923;-63
2022/12/09 10:03:46;;;;;;;;;;;;;;;-0.58;100.00;100227.97;5074419;28;19920;-63
2022/12/09 10:06:24;;;;;;;;;;;;;;;-0.58;100.00;100223.59;5069882;28;19917;-63
2022/12/09 10:08:54;;;;;;;;;;;;;;;-0.62;100.00;100222.19;5058663;28;19921;-64
2022/12/09 10:11:23;;;;;;;;;;;;;;;-0.64;100.00;100231.09;5062625;28;19969;-63
2022/12/09 10:13:59;;;;;;;;;;;;;;;-0.65;100.00;100222.44;5072541;28;19936;-64
2022/12/09 10:16:35;;;;;;;;;;;;;;;-0.65;100.00;100227.63;5071723;28;20491;-64
2022/12/09 10:19:03;;;;;;;;;;;;;;;-0.68;100.00;100223.50;5060661;28;20274;-64
2022/12/09 10:21:29;;;;;;;;;;;;;;;-0.66;100.00;100224.22;5067296;28;20054;-64
2022/12/09 10:23:55;;;;;;;;;;;;;;;-0.61;100.00;100226.44;5069969;28;19924;-63
2022/12/09 10:26:25;;;;;;;;;;;;;;;-0.50;100.00;100221.19;5074195;28;19924;-63
2022/12/09 10:28:56;;;;;;;;;;;;;;;-0.32;100.00;100224.03;5068053;28;19926;-63
2022/12/09 10:31:21;;;;;;;;;;;;;;;-0.20;100.00;100219.59;5067152;28;19921;-62
2022/12/09 10:33:47;;;;;;;;;;;;;;;-0.13;100.00;100218.16;5061455;28;20406;-62
2022/12/09 10:36:23;;;;;;;;;;;;;;;-0.11;100.00;100223.22;5068589;28;19921;-61
2022/12/09 10:38:49;;;;;;;;;;;;;;;-0.12;100.00;100216.38;5065787;28;20309;-61
2022/12/09 10:44:17;;;;;;;;;;;;;;;0.01;100.00;100214.38;5068205;28;19966;-62
2022/12/09 10:46:43;;;;;;;;;;;;;;;0.04;100.00;100210.69;5072626;28;19924;-60
2022/12/09 10:49:14;;;;;;;;;;;;;;;0.05;100.00;100201.88;5070698;28;19921;-62
2022/12/09 10:51:46;;;;;;;;;;;;;;;0.07;100.00;100205.19;5069026;28;19936;-61
2022/12/09 10:54:11;;;;;;;;;;;;;;;0.09;100.00;100201.50;5070769;28;19920;-62
2022/12/09 10:56:38;;;;;;;;;;;;;;;0.18;100.00;100195.53;5071035;28;20066;-60
2022/12/09 10:59:08;;;;;;;;;;;;;;;0.20;100.00;100196.19;5070472;28;19931;-62
2022/12/09 11:01:47;;;;;;;;;;;;;;;0.29;100.00;100199.81;5069640;28;19931;-62
2022/12/09 11:04:12;;;;;;;;;;;;;;;0.38;100.00;100206.00;5072055;28;19921;-62
2022/12/09 11:06:39;;;;;;;;;;;;;;;0.42;100.00;100205.63;5073211;28;19924;-62
2022/12/09 11:09:05;;;;;;;;;;;;;;;0.40;100.00;100201.50;5071888;28;19927;-60
2022/12/09 11:11:47;;;;;;;;;;;;;;;0.45;100.00;100201.09;5071599;28;19924;-62
2022/12/09 11:14:32;;;;;;;;;;;;;;;0.57;100.00;100184.41;5067000;28;19985;-62
2022/12/09 11:17:08;;;;;;;;;;;;;;;0.66;100.00;100186.19;5075068;28;19921;-62
2022/12/09 11:19:35;;;;;;;;;;;;;;;0.78;100.00;100182.50;5072951;28;19955;-62
2022/12/09 11:22:19;;;;;;;;;;;;;;;0.84;100.00;100183.75;5068164;28;20377;-61
2022/12/09 11:24:44;;;;;;;;;;;;;;;0.93;100.00;100182.94;5074194;28;19925;-62
2022/12/09 11:27:27;;;;;;;;;;;;;;;1.06;100.00;100177.47;5074525;28;19928;-62
2022/12/09 11:30:07;;;;;;;;;;;;;;;1.16;100.00;100167.00;5069202;28;19963;-62
2022/12/09 11:32:51;;;;;;;;;;;;;;;1.15;100.00;100165.34;5069082;28;19967;-62
2022/12/09 11:35:18;;;;;;;;;;;;;;;1.25;100.00;100153.94;5072386;28;19925;-61
2022/12/09 11:37:43;;;;;;;;;;;;;;;1.30;100.00;100148.31;5062661;28;20469;-62
2022/12/09 11:40:14;;;;;;;;;;;;;;;1.34;100.00;100144.44;5071461;28;20014;-62
2022/12/09 11:42:39;;;;;;;;;;;;;;;1.40;100.00;100143.91;5073275;28;19975;-62
2022/12/09 11:45:15;;;;;;;;;;;;;;;1.44;100.00;100145.25;5072419;28;19920;-62
2022/12/09 11:47:42;;;;;;;;;;;;;;;1.48;100.00;100135.34;5071742;28;19927;-61
2022/12/09 11:50:19;;;;;;;;;;;;;;;1.60;100.00;100138.63;5068571;28;19963;-60
2022/12/09 11:52:44;;;;;;;;;;;;;;;1.53;100.00;100133.97;5070955;28;19932;-61
2022/12/09 11:55:21;;;;;;;;;;;;;;;1.50;100.00;100136.88;5062531;28;19917;-60
2022/12/09 11:57:55;;;;;;;;;;;;;;;1.44;100.00;100134.78;5071174;28;19924;-62
2022/12/09 12:00:21;;;;;;;;;;;;;;;1.39;100.00;100137.00;5074386;28;19924;-62
2022/12/09 12:02:51;;;;;;;;;;;;;;;1.36;100.00;100129.44;5067861;28;19933;-62
2022/12/09 12:05:22;;;;;;;;;;;;;;;1.37;100.00;100131.13;5068914;28;21443;-62
2022/12/09 12:07:50;;;;;;;;;;;;;;;1.39;100.00;100123.94;5068099;28;19965;-62
2022/12/09 12:10:22;;;;;;;;;;;;;;;1.37;100.00;100118.06;5069628;28;19929;-61
2022/12/09 12:12:50;;;;;;;;;;;;;;;1.43;100.00;100120.09;5074206;28;20393;-61
2022/12/09 12:15:25;;;;;;;;;;;;;;;1.50;100.00;100112.53;5068585;28;19920;-62
2022/12/09 12:17:54;;;;;;;;;;;;;;;1.53;100.00;100113.06;5068861;28;20314;-61
2022/12/09 12:20:24;;;;;;;;;;;;;;;1.73;100.00;100108.59;5070888;28;19916;-62
2022/12/09 12:22:52;;;;;;;;;;;;;;;1.96;100.00;100103.84;5078834;28;20309;-62
2022/12/09 12:25:19;;;;;;;;;;;;;;;2.10;100.00;100105.13;5064334;28;20389;-61
2022/12/09 12:27:50;;;;;;;;;;;;;;;2.21;100.00;100101.50;5072284;28;19929;-62
2022/12/09 12:30:17;;;;;;;;;;;;;;;2.23;100.00;100099.56;5069925;28;20374;-62
2022/12/09 12:32:45;;;;;;;;;;;;;;;2.28;100.00;100092.09;5072293;28;20029;-62